createdAt,value
2022-10-19T00:01:33.709Z,26.19
2022-10-19T00:03:33.824Z,26.23
2022-10-19T00:05:33.742Z,26.08
2022-10-19T00:07:34.082Z,26.18
2022-10-19T00:09:33.682Z,26.16
2022-10-19T00:11:33.726Z,26.11
2022-10-19T00:13:33.769Z,26.25
2022-10-19T00:15:33.744Z,26.13
2022-10-19T00:17:34.083Z,26.18
2022-10-19T00:19:33.804Z,26.14
2022-10-19T00:21:33.819Z,26.25
2022-10-19T00:23:33.798Z,26.13
2022-10-19T00:25:33.812Z,26.16
2022-10-19T00:27:33.753Z,26.16
2022-10-19T00:29:33.770Z,26.22
2022-10-19T00:31:33.793Z,26.22
2022-10-19T00:33:33.789Z,26.22
2022-10-19T00:35:33.754Z,26.17
2022-10-19T00:37:33.771Z,26.20
2022-10-19T00:39:33.839Z,26.22
2022-10-19T00:41:33.719Z,26.22
2022-10-19T00:43:33.829Z,26.27
2022-10-19T00:45:33.711Z,26.20
2022-10-19T00:47:34.859Z,26.18
2022-10-19T00:49:33.812Z,26.18
2022-10-19T00:51:33.715Z,26.22
2022-10-19T00:53:33.816Z,26.22
2022-10-19T00:55:33.849Z,26.21
2022-10-19T00:57:33.762Z,26.17
2022-10-19T00:59:33.865Z,26.14
2022-10-19T01:01:33.888Z,26.22
2022-10-19T01:03:33.811Z,26.18
2022-10-19T01:05:33.847Z,26.14
2022-10-19T01:07:34.109Z,26.25
2022-10-19T01:09:33.812Z,26.18
2022-10-19T01:11:33.749Z,26.16
2022-10-19T01:13:33.861Z,26.23
2022-10-19T01:15:33.870Z,26.19
2022-10-19T01:17:34.109Z,26.28
2022-10-19T01:19:33.805Z,26.11
2022-10-19T01:21:33.907Z,26.19
2022-10-19T01:23:33.851Z,26.16
2022-10-19T01:25:33.865Z,26.21
2022-10-19T01:27:34.123Z,26.14
2022-10-19T01:29:33.831Z,26.10
2022-10-19T01:31:33.859Z,26.11
2022-10-19T01:33:33.881Z,26.17
2022-10-19T01:35:33.881Z,26.16
2022-10-19T01:37:34.178Z,26.14
2022-10-19T01:39:33.812Z,26.22
2022-10-19T01:41:33.889Z,26.14
2022-10-19T01:43:33.870Z,26.14
2022-10-19T01:45:33.839Z,26.20
2022-10-19T01:47:33.936Z,26.18
2022-10-19T01:49:33.861Z,26.24
2022-10-19T01:51:33.930Z,26.22
2022-10-19T01:53:33.939Z,26.13
2022-10-19T01:55:33.941Z,26.08
2022-10-19T01:57:33.902Z,26.11
2022-10-19T01:59:33.899Z,26.06
2022-10-19T02:01:33.915Z,26.09
2022-10-19T02:03:33.889Z,26.09
2022-10-19T02:05:33.758Z,26.10
2022-10-19T02:07:33.865Z,26.10
2022-10-19T02:09:33.873Z,26.14
2022-10-19T02:11:33.946Z,26.22
2022-10-19T02:13:33.876Z,26.16
2022-10-19T02:15:34.704Z,26.17
2022-10-19T02:17:33.822Z,26.22
2022-10-19T02:19:33.935Z,26.22
2022-10-19T02:21:33.945Z,26.14
2022-10-19T02:23:33.797Z,26.13
2022-10-19T02:25:33.947Z,26.14
2022-10-19T02:27:33.948Z,26.18
2022-10-19T02:29:33.926Z,26.13
2022-10-19T02:31:33.899Z,26.13
2022-10-19T02:33:33.905Z,26.11
2022-10-19T02:35:33.909Z,26.13
2022-10-19T02:37:33.936Z,26.22
2022-10-19T02:39:33.961Z,26.18
2022-10-19T02:41:33.960Z,26.08
2022-10-19T02:43:33.950Z,26.08
2022-10-19T02:45:33.838Z,26.11
2022-10-19T02:47:34.061Z,26.21
2022-10-19T02:49:33.921Z,26.12
2022-10-19T02:51:33.951Z,26.12
2022-10-19T02:53:33.983Z,26.10
2022-10-19T02:55:34.049Z,26.21
2022-10-19T02:57:35.438Z,26.13
2022-10-19T02:59:33.972Z,26.08
2022-10-19T03:01:33.953Z,26.09
2022-10-19T03:03:33.930Z,26.12
2022-10-19T03:05:33.903Z,26.11
2022-10-19T03:07:35.195Z,26.10
2022-10-19T03:09:33.924Z,26.14
2022-10-19T03:11:33.971Z,26.18
2022-10-19T03:13:33.973Z,26.14
2022-10-19T03:15:33.987Z,26.09
2022-10-19T03:17:34.313Z,26.08
2022-10-19T03:19:33.940Z,26.18
2022-10-19T03:21:34.066Z,26.09
2022-10-19T03:23:33.990Z,26.08
2022-10-19T03:25:34.041Z,26.11
2022-10-19T03:27:34.301Z,26.11
2022-10-19T03:29:33.869Z,26.14
2022-10-19T03:31:34.030Z,26.09
2022-10-19T03:33:34.018Z,26.22
2022-10-19T03:35:35.034Z,26.17
2022-10-19T03:37:34.310Z,26.14
2022-10-19T03:39:34.008Z,26.22
2022-10-19T03:41:33.892Z,26.11
2022-10-19T03:43:33.904Z,26.11
2022-10-19T03:45:34.013Z,26.08
2022-10-19T03:47:34.256Z,26.16
2022-10-19T03:49:36.795Z,26.18
2022-10-19T03:51:34.058Z,26.07
2022-10-19T03:53:33.926Z,26.08
2022-10-19T03:55:34.021Z,26.16
2022-10-19T03:57:34.227Z,26.17
2022-10-19T03:59:34.042Z,26.18
2022-10-19T04:01:34.117Z,26.14
2022-10-19T04:05:33.945Z,25.97
2022-10-19T04:07:35.424Z,26.18
2022-10-19T04:09:34.048Z,26.08
2022-10-19T04:11:33.883Z,26.09
2022-10-19T04:13:34.036Z,26.08
2022-10-19T04:15:34.117Z,26.12
2022-10-19T04:17:34.541Z,26.15
2022-10-19T04:19:34.020Z,26.18
2022-10-19T04:21:34.051Z,26.22
2022-10-19T04:23:33.984Z,26.20
2022-10-19T04:25:34.048Z,26.14
2022-10-19T04:27:34.301Z,26.11
2022-10-19T04:29:34.086Z,26.20
2022-10-19T04:31:34.048Z,26.25
2022-10-19T04:33:34.048Z,26.17
2022-10-19T04:35:34.083Z,26.17
2022-10-19T04:37:34.413Z,26.17
2022-10-19T04:39:34.046Z,26.21
2022-10-19T04:41:34.079Z,26.14
2022-10-19T04:43:34.088Z,26.16
2022-10-19T04:45:34.086Z,26.17
2022-10-19T04:47:34.226Z,26.22
2022-10-19T04:49:34.035Z,26.15
2022-10-19T04:51:33.983Z,26.25
2022-10-19T04:53:34.096Z,26.20
2022-10-19T04:55:34.102Z,26.14
2022-10-19T04:59:34.091Z,26.14
2022-10-19T05:01:34.080Z,26.23
2022-10-19T05:03:34.139Z,26.16
2022-10-19T05:05:34.152Z,26.14
2022-10-19T05:07:34.329Z,26.18
2022-10-19T05:09:34.023Z,26.17
2022-10-19T05:11:34.114Z,26.17
2022-10-19T05:13:34.192Z,26.14
2022-10-19T05:15:34.116Z,26.18
2022-10-19T05:17:34.365Z,26.14
2022-10-19T05:19:34.017Z,26.18
2022-10-19T05:21:34.163Z,25.12
2022-10-19T05:23:34.051Z,24.85
2022-10-19T05:25:33.964Z,24.80
2022-10-19T05:27:34.335Z,24.71
2022-10-19T05:29:33.975Z,24.68
2022-10-19T05:31:34.123Z,24.66
2022-10-19T05:33:34.138Z,24.62
2022-10-19T05:35:34.142Z,24.54
2022-10-19T05:37:34.351Z,24.61
2022-10-19T05:39:34.105Z,24.58
2022-10-19T05:41:34.132Z,24.64
2022-10-19T05:43:34.180Z,24.48
2022-10-19T05:45:34.126Z,24.49
2022-10-19T05:47:34.348Z,24.53
2022-10-19T05:49:33.998Z,24.51
2022-10-19T05:51:34.100Z,24.47
2022-10-19T05:53:34.154Z,24.51
2022-10-19T05:55:34.030Z,24.51
2022-10-19T05:57:34.263Z,24.44
2022-10-19T05:59:34.167Z,24.43
2022-10-19T06:01:34.217Z,24.46
2022-10-19T06:03:34.167Z,24.44
2022-10-19T06:05:34.206Z,24.46
2022-10-19T06:07:34.335Z,24.43
2022-10-19T06:09:34.093Z,24.50
2022-10-19T06:11:34.159Z,24.50
2022-10-19T06:13:34.169Z,24.48
2022-10-19T06:15:34.214Z,24.55
2022-10-19T06:17:34.366Z,24.48
2022-10-19T06:19:34.213Z,24.52
2022-10-19T06:21:34.215Z,24.59
2022-10-19T06:23:34.196Z,24.52
2022-10-19T06:25:34.121Z,24.53
2022-10-19T06:27:34.292Z,24.55
2022-10-19T06:29:34.203Z,24.55
2022-10-19T06:31:34.162Z,24.57
2022-10-19T06:33:34.387Z,24.59
2022-10-19T06:35:34.194Z,24.35
2022-10-19T06:37:34.556Z,24.62
2022-10-19T06:39:34.208Z,24.69
2022-10-19T06:41:34.255Z,24.78
2022-10-19T06:43:34.198Z,24.68
2022-10-19T06:45:35.972Z,24.72
2022-10-19T06:47:34.573Z,24.83
2022-10-19T06:49:34.126Z,24.75
2022-10-19T06:51:34.261Z,24.79
2022-10-19T06:53:34.225Z,24.75
2022-10-19T06:55:34.277Z,24.76
2022-10-19T06:57:34.600Z,24.80
2022-10-19T06:59:34.109Z,24.69
2022-10-19T07:01:34.293Z,24.71
2022-10-19T07:03:34.225Z,24.70
2022-10-19T07:05:34.247Z,24.71
2022-10-19T07:07:34.554Z,24.68
2022-10-19T07:09:34.260Z,24.66
2022-10-19T07:11:34.186Z,24.66
2022-10-19T07:13:34.236Z,24.59
2022-10-19T07:15:34.249Z,24.72
2022-10-19T07:17:34.617Z,24.66
2022-10-19T07:19:34.183Z,24.66
2022-10-19T07:21:34.207Z,24.68
2022-10-19T07:23:34.285Z,24.80
2022-10-19T07:25:34.214Z,24.94
2022-10-19T07:27:37.636Z,25.10
2022-10-19T07:29:34.303Z,25.23
2022-10-19T07:31:34.283Z,25.50
2022-10-19T07:33:34.257Z,25.80
2022-10-19T07:35:34.255Z,25.89
2022-10-19T07:37:34.565Z,26.11
2022-10-19T07:39:34.209Z,26.03
2022-10-19T07:41:34.276Z,26.03
2022-10-19T07:43:34.367Z,25.95
2022-10-19T07:45:34.231Z,26.09
2022-10-19T07:47:34.458Z,26.04
2022-10-19T07:49:34.234Z,26.06
2022-10-19T07:51:34.244Z,26.08
2022-10-19T07:53:34.228Z,26.14
2022-10-19T07:55:34.184Z,25.99
2022-10-19T07:57:34.309Z,25.99
2022-10-19T07:59:34.376Z,25.96
2022-10-19T08:01:34.323Z,26.02
2022-10-19T08:05:34.313Z,26.08
2022-10-19T08:07:34.349Z,26.14
2022-10-19T08:09:52.011Z,25.99
2022-10-19T08:11:34.289Z,25.90
2022-10-19T08:13:34.313Z,25.75
2022-10-19T08:15:34.332Z,25.75
2022-10-19T08:17:34.301Z,25.78
2022-10-19T08:19:34.364Z,25.79
2022-10-19T08:21:34.225Z,25.80
2022-10-19T08:23:34.245Z,25.72
2022-10-19T08:25:34.292Z,25.72
2022-10-19T08:29:34.385Z,26.11
2022-10-19T08:31:34.214Z,26.08
2022-10-19T08:33:34.307Z,25.99
2022-10-19T08:35:34.258Z,25.99
2022-10-19T08:37:44.226Z,26.05
2022-10-19T08:39:34.323Z,26.07
2022-10-19T08:41:34.470Z,25.90
2022-10-19T08:43:34.230Z,25.89
2022-10-19T08:45:34.418Z,25.94
2022-10-19T08:47:34.686Z,26.02
2022-10-19T08:49:34.363Z,26.08
2022-10-19T08:51:34.354Z,26.14
2022-10-19T08:53:34.349Z,25.99
2022-10-19T08:55:34.385Z,26.08
2022-10-19T08:57:34.580Z,26.06
2022-10-19T08:59:34.326Z,26.06
2022-10-19T09:01:36.929Z,26.07
2022-10-19T09:03:54.453Z,25.94
2022-10-19T09:05:34.388Z,26.00
2022-10-19T09:07:34.425Z,25.92
2022-10-19T09:09:34.429Z,25.91
2022-10-19T09:11:34.389Z,25.86
2022-10-19T09:13:41.266Z,25.96
2022-10-19T09:15:34.389Z,25.89
2022-10-19T09:17:34.346Z,26.04
2022-10-19T09:19:34.305Z,26.16
2022-10-19T09:21:40.941Z,26.04
2022-10-19T09:23:34.314Z,25.99
2022-10-19T09:25:34.325Z,25.86
2022-10-19T09:27:34.296Z,25.83
2022-10-19T09:29:34.437Z,25.93
2022-10-19T09:31:39.567Z,25.86
2022-10-19T09:33:34.314Z,25.83
2022-10-19T09:35:34.484Z,25.80
2022-10-19T09:37:34.384Z,25.99
2022-10-19T09:39:34.354Z,26.08
2022-10-19T09:41:34.349Z,26.13
2022-10-19T09:43:34.382Z,25.99
2022-10-19T09:45:34.319Z,26.03
2022-10-19T09:47:34.833Z,26.04
2022-10-19T09:49:34.434Z,26.00
2022-10-19T09:51:34.379Z,26.07
2022-10-19T09:53:34.463Z,25.93
2022-10-19T09:55:34.384Z,25.96
2022-10-19T09:57:34.693Z,25.92
2022-10-19T09:59:34.404Z,25.80
2022-10-19T10:01:41.845Z,25.89
2022-10-19T10:03:34.434Z,25.74
2022-10-19T10:05:34.536Z,25.80
2022-10-19T10:07:34.696Z,25.78
2022-10-19T10:09:34.468Z,25.80
2022-10-19T10:11:34.383Z,25.81
2022-10-19T10:13:34.453Z,25.99
2022-10-19T10:15:34.477Z,25.85
2022-10-19T10:17:34.518Z,25.99
2022-10-19T10:19:34.485Z,25.84
2022-10-19T10:21:34.521Z,25.83
2022-10-19T10:23:34.474Z,25.97
2022-10-19T10:25:34.382Z,25.95
2022-10-19T10:27:34.727Z,25.93
2022-10-19T10:29:34.318Z,25.89
2022-10-19T10:31:34.341Z,25.89
2022-10-19T10:33:44.370Z,25.92
2022-10-19T10:35:34.525Z,25.80
2022-10-19T10:37:34.734Z,25.80
2022-10-19T10:39:34.379Z,25.90
2022-10-19T10:41:34.463Z,25.80
2022-10-19T10:43:34.390Z,25.75
2022-10-19T10:45:34.341Z,25.77
2022-10-19T10:47:34.696Z,25.80
2022-10-19T10:49:34.762Z,25.61
2022-10-19T10:51:34.481Z,25.73
2022-10-19T10:53:34.498Z,25.80
2022-10-19T10:55:34.427Z,25.80
2022-10-19T10:57:34.497Z,25.83
2022-10-19T10:59:34.396Z,25.83
2022-10-19T11:01:34.581Z,25.80
2022-10-19T11:03:34.500Z,25.80
2022-10-19T11:05:34.450Z,25.80
2022-10-19T11:07:34.765Z,25.75
2022-10-19T11:09:34.471Z,25.74
2022-10-19T11:11:34.528Z,25.65
2022-10-19T11:13:34.481Z,25.80
2022-10-19T11:15:34.497Z,25.65
2022-10-19T11:17:34.964Z,25.72
2022-10-19T11:19:34.556Z,25.75
2022-10-19T11:21:34.502Z,25.65
2022-10-19T11:23:34.525Z,25.65
2022-10-19T11:25:34.513Z,25.80
2022-10-19T11:27:34.863Z,25.75
2022-10-19T11:29:34.621Z,25.72
2022-10-19T11:31:34.456Z,25.83
2022-10-19T11:33:34.525Z,25.72
2022-10-19T11:35:34.456Z,25.78
2022-10-19T11:37:34.717Z,25.72
2022-10-19T11:39:34.518Z,25.79
2022-10-19T11:41:34.543Z,25.80
2022-10-19T11:43:34.572Z,25.85
2022-10-19T11:45:34.453Z,25.90
2022-10-19T11:47:34.802Z,25.86
2022-10-19T11:49:34.584Z,25.79
2022-10-19T11:51:34.709Z,25.83
2022-10-19T11:53:34.510Z,25.78
2022-10-19T11:55:34.583Z,25.89
2022-10-19T11:57:34.694Z,25.80
2022-10-19T11:59:34.382Z,25.84
2022-10-19T12:01:34.674Z,25.90
2022-10-19T12:03:34.452Z,25.74
2022-10-19T12:05:34.470Z,25.78
2022-10-19T12:07:34.568Z,25.75
2022-10-19T12:09:34.472Z,25.74
2022-10-19T12:11:34.666Z,25.65
2022-10-19T12:13:34.492Z,25.64
2022-10-19T12:15:35.302Z,25.55
2022-10-19T12:17:34.819Z,25.58
2022-10-19T12:19:34.681Z,25.54
2022-10-19T12:21:34.522Z,25.52
2022-10-19T12:23:34.587Z,25.74
2022-10-19T12:25:34.578Z,25.75
2022-10-19T12:27:35.029Z,25.60
2022-10-19T12:29:34.542Z,25.52
2022-10-19T12:31:34.568Z,25.55
2022-10-19T12:33:34.448Z,25.65
2022-10-19T12:35:34.631Z,25.61
2022-10-19T12:37:34.875Z,25.51
2022-10-19T12:39:34.692Z,25.40
2022-10-19T12:41:34.521Z,25.58
2022-10-19T12:43:34.601Z,25.65
2022-10-19T12:45:34.612Z,25.77
2022-10-19T12:47:34.913Z,25.74
2022-10-19T12:49:34.633Z,25.65
2022-10-19T12:51:34.674Z,25.61
2022-10-19T12:53:34.578Z,25.71
2022-10-19T12:55:34.519Z,25.73
2022-10-19T12:57:34.641Z,25.74
2022-10-19T12:59:34.657Z,25.65
2022-10-19T13:01:34.637Z,25.65
2022-10-19T13:03:34.567Z,25.56
2022-10-19T13:05:34.708Z,25.57
2022-10-19T13:07:35.173Z,25.53
2022-10-19T13:09:34.696Z,25.51
2022-10-19T13:13:34.562Z,25.81
2022-10-19T13:15:34.523Z,25.88
2022-10-19T13:17:34.836Z,25.79
2022-10-19T13:19:34.626Z,25.80
2022-10-19T13:21:34.565Z,25.80
2022-10-19T13:23:34.583Z,25.85
2022-10-19T13:25:34.511Z,25.81
2022-10-19T13:27:35.137Z,25.77
2022-10-19T13:29:34.677Z,25.83
2022-10-19T13:31:34.773Z,25.81
2022-10-19T13:33:34.670Z,25.54
2022-10-19T13:35:34.651Z,25.65
2022-10-19T13:37:34.909Z,25.80
2022-10-19T13:39:34.718Z,26.02
2022-10-19T13:41:34.651Z,25.94
2022-10-19T13:43:34.745Z,25.99
2022-10-19T13:45:34.708Z,26.00
2022-10-19T13:47:35.023Z,25.89
2022-10-19T13:49:34.627Z,25.93
2022-10-19T13:51:34.757Z,25.99
2022-10-19T13:53:34.716Z,25.89
2022-10-19T13:55:34.718Z,25.97
2022-10-19T13:57:35.066Z,25.89
2022-10-19T13:59:34.748Z,26.03
2022-10-19T14:01:34.656Z,25.86
2022-10-19T14:03:34.538Z,25.90
2022-10-19T14:05:34.820Z,25.65
2022-10-19T14:07:34.978Z,25.61
2022-10-19T14:09:34.606Z,25.50
2022-10-19T14:11:34.656Z,25.59
2022-10-19T14:13:34.778Z,25.44
2022-10-19T14:15:34.599Z,25.56
2022-10-19T14:17:34.835Z,25.52
2022-10-19T14:19:34.831Z,25.75
2022-10-19T14:21:34.748Z,25.72
2022-10-19T14:23:34.668Z,25.52
2022-10-19T14:25:34.664Z,25.51
2022-10-19T14:27:35.103Z,25.52
2022-10-19T14:29:34.623Z,25.46
2022-10-19T14:31:34.697Z,25.58
2022-10-19T14:33:34.679Z,25.65
2022-10-19T14:35:34.592Z,25.47
2022-10-19T14:37:34.965Z,25.56
2022-10-19T14:39:34.773Z,25.74
2022-10-19T14:43:34.757Z,25.65
2022-10-19T14:45:34.673Z,25.65
2022-10-19T14:47:34.762Z,25.79
2022-10-19T14:49:34.701Z,25.75
2022-10-19T14:51:34.745Z,25.60
2022-10-19T14:53:34.752Z,25.54
2022-10-19T14:55:34.743Z,25.61
2022-10-19T14:57:35.061Z,25.53
2022-10-19T14:59:34.836Z,25.52
2022-10-19T15:01:34.810Z,25.46
2022-10-19T15:03:34.742Z,25.42
2022-10-19T15:05:34.687Z,25.42
2022-10-19T15:07:34.870Z,25.56
2022-10-19T15:09:37.854Z,25.44
2022-10-19T15:11:34.882Z,25.43
2022-10-19T15:13:34.827Z,25.45
2022-10-19T15:15:34.794Z,25.42
2022-10-19T15:17:34.614Z,25.51
2022-10-19T15:19:34.754Z,25.54
2022-10-19T15:21:34.780Z,25.51
2022-10-19T15:23:34.825Z,25.58
2022-10-19T15:25:34.807Z,25.51
2022-10-19T15:27:34.772Z,25.52
2022-10-19T15:29:34.784Z,25.56
2022-10-19T15:31:34.704Z,25.46
2022-10-19T15:33:34.827Z,25.42
2022-10-19T15:35:34.828Z,25.36
2022-10-19T15:37:34.807Z,25.38
2022-10-19T15:39:39.821Z,25.50
2022-10-19T15:41:34.903Z,25.78
2022-10-19T15:43:34.675Z,25.80
2022-10-19T15:45:34.835Z,25.80
2022-10-19T15:47:35.261Z,25.40
2022-10-19T15:49:36.351Z,25.47
2022-10-19T15:51:34.788Z,25.13
2022-10-19T15:53:34.799Z,24.89
2022-10-19T15:55:34.732Z,24.95
2022-10-19T15:57:35.130Z,24.95
2022-10-19T15:59:34.846Z,24.78
2022-10-19T16:01:34.863Z,24.69
2022-10-19T16:03:34.823Z,24.66
2022-10-19T16:05:34.826Z,24.57
2022-10-19T16:07:35.206Z,24.58
2022-10-19T16:09:34.796Z,24.62
2022-10-19T16:11:34.833Z,24.55
2022-10-19T16:13:34.773Z,24.54
2022-10-19T16:15:34.855Z,24.40
2022-10-19T16:17:35.149Z,24.40
2022-10-19T16:19:34.988Z,24.38
2022-10-19T16:21:34.849Z,24.31
2022-10-19T16:23:37.791Z,24.34
2022-10-19T16:25:34.845Z,24.29
2022-10-19T16:27:35.110Z,24.27
2022-10-19T16:29:34.779Z,24.38
2022-10-19T16:31:34.808Z,24.38
2022-10-19T16:33:34.832Z,24.38
2022-10-19T16:35:34.840Z,24.32
2022-10-19T16:37:35.130Z,24.24
2022-10-19T16:39:34.951Z,24.34
2022-10-19T16:41:34.789Z,24.27
2022-10-19T16:43:34.909Z,24.30
2022-10-19T16:45:34.819Z,24.20
2022-10-19T16:47:34.731Z,27.52
2022-10-19T16:49:34.888Z,26.00
2022-10-19T16:51:34.769Z,26.04
2022-10-19T16:53:34.896Z,26.05
2022-10-19T16:55:34.877Z,26.12
2022-10-19T16:57:34.736Z,26.10
2022-10-19T16:59:34.836Z,26.07
2022-10-19T17:01:35.009Z,26.08
2022-10-19T17:03:34.834Z,26.07
2022-10-19T17:05:34.931Z,26.07
2022-10-19T17:07:34.873Z,26.03
2022-10-19T17:09:42.913Z,26.08
2022-10-19T17:11:34.926Z,26.03
2022-10-19T17:13:34.919Z,26.07
2022-10-19T17:15:42.805Z,26.07
2022-10-19T17:17:35.325Z,26.07
2022-10-19T17:19:34.938Z,26.03
2022-10-19T17:21:35.001Z,26.06
2022-10-19T17:23:34.895Z,26.07
2022-10-19T17:25:34.836Z,26.07
2022-10-19T17:27:34.933Z,26.07
2022-10-19T17:29:34.922Z,26.11
2022-10-19T17:31:34.951Z,26.00
2022-10-19T17:33:34.938Z,26.05
2022-10-19T17:35:34.857Z,25.99
2022-10-19T17:37:35.406Z,26.06
2022-10-19T17:39:34.863Z,26.08
2022-10-19T17:41:34.908Z,26.17
2022-10-19T17:43:34.850Z,26.07
2022-10-19T17:45:34.993Z,26.08
2022-10-19T17:47:35.101Z,26.06
2022-10-19T17:49:34.866Z,26.16
2022-10-19T17:51:34.853Z,26.07
2022-10-19T17:53:34.978Z,26.07
2022-10-19T17:55:34.877Z,26.11
2022-10-19T17:57:35.311Z,26.09
2022-10-19T17:59:46.770Z,26.14
2022-10-19T18:01:34.999Z,26.07
2022-10-19T18:03:34.987Z,26.06
2022-10-19T18:05:34.945Z,26.06
2022-10-19T18:07:35.317Z,26.07
2022-10-19T18:09:35.199Z,26.08
2022-10-19T18:11:35.017Z,26.08
2022-10-19T18:13:35.010Z,26.10
2022-10-19T18:15:34.977Z,26.11
2022-10-19T18:17:35.394Z,26.07
2022-10-19T18:19:35.019Z,26.12
2022-10-19T18:21:34.890Z,26.06
2022-10-19T18:23:34.915Z,26.04
2022-10-19T18:25:52.924Z,26.08
2022-10-19T18:27:35.188Z,26.03
2022-10-19T18:29:34.998Z,26.08
2022-10-19T18:31:34.999Z,26.06
2022-10-19T18:33:34.846Z,26.06
2022-10-19T18:35:34.860Z,26.08
2022-10-19T18:37:34.954Z,26.09
2022-10-19T18:39:35.037Z,26.06
2022-10-19T18:41:34.879Z,26.07
2022-10-19T18:43:35.103Z,26.04
2022-10-19T18:45:35.011Z,26.02
2022-10-19T18:47:35.058Z,26.05
2022-10-19T18:49:35.050Z,26.03
2022-10-19T18:51:34.939Z,26.08
2022-10-19T18:53:34.999Z,26.07
2022-10-19T18:55:35.065Z,26.07
2022-10-19T18:57:35.029Z,26.16
2022-10-19T18:59:35.047Z,26.18
2022-10-19T19:01:35.092Z,26.04
2022-10-19T19:03:35.041Z,26.13
2022-10-19T19:05:35.033Z,26.08
2022-10-19T19:07:34.966Z,26.06
2022-10-19T19:09:34.938Z,26.09
2022-10-19T19:11:36.918Z,26.08
2022-10-19T19:13:35.076Z,26.08
2022-10-19T19:15:34.963Z,26.11
2022-10-19T19:17:35.060Z,26.07
2022-10-19T19:19:35.087Z,26.11
2022-10-19T19:21:35.077Z,26.07
2022-10-19T19:23:34.979Z,26.08
2022-10-19T19:25:34.987Z,26.02
2022-10-19T19:27:35.079Z,26.08
2022-10-19T19:29:35.071Z,26.03
2022-10-19T19:31:34.936Z,26.11
2022-10-19T19:33:35.083Z,26.10
2022-10-19T19:35:35.131Z,26.07
2022-10-19T19:37:35.465Z,26.04
2022-10-19T19:39:35.074Z,26.04
2022-10-19T19:41:35.124Z,25.99
2022-10-19T19:43:34.910Z,26.07
2022-10-19T19:45:34.981Z,26.07
2022-10-19T19:47:35.276Z,26.02
2022-10-19T19:49:34.978Z,25.99
2022-10-19T19:51:35.107Z,26.08
2022-10-19T19:53:35.053Z,26.02
2022-10-19T19:55:38.182Z,26.06
2022-10-19T19:57:35.273Z,26.06
2022-10-19T19:59:35.024Z,26.11
2022-10-19T20:01:35.084Z,26.08
2022-10-19T20:03:35.070Z,26.05
2022-10-19T20:05:35.123Z,26.05
2022-10-19T20:07:35.304Z,26.07
2022-10-19T20:09:35.148Z,26.07
2022-10-19T20:11:38.350Z,26.11
2022-10-19T20:13:35.145Z,25.99
2022-10-19T20:15:35.083Z,25.96
2022-10-19T20:17:35.185Z,26.03
2022-10-19T20:19:35.058Z,25.97
2022-10-19T20:21:35.229Z,26.04
2022-10-19T20:23:35.383Z,26.07
2022-10-19T20:25:34.991Z,26.10
2022-10-19T20:27:35.440Z,26.14
2022-10-19T20:29:35.102Z,26.08
2022-10-19T20:31:35.140Z,26.02
2022-10-19T20:33:35.163Z,26.02
2022-10-19T20:35:35.155Z,26.07
2022-10-19T20:37:34.934Z,26.18
2022-10-19T20:39:35.217Z,25.83
2022-10-19T20:41:35.142Z,26.02
2022-10-19T20:43:35.071Z,25.97
2022-10-19T20:45:35.163Z,25.99
2022-10-19T20:47:35.162Z,26.03
2022-10-19T20:49:35.264Z,26.03
2022-10-19T20:51:35.095Z,26.04
2022-10-19T20:53:35.148Z,25.99
2022-10-19T20:55:35.190Z,25.99
2022-10-19T20:57:35.128Z,26.03
2022-10-19T20:59:35.178Z,26.00
2022-10-19T21:01:35.208Z,26.08
2022-10-19T21:03:35.003Z,26.09
2022-10-19T21:05:35.102Z,26.07
2022-10-19T21:07:35.067Z,26.08
2022-10-19T21:09:35.131Z,26.07
2022-10-19T21:11:35.168Z,26.07
2022-10-19T21:13:35.121Z,26.07
2022-10-19T21:15:35.169Z,26.07
2022-10-19T21:17:35.208Z,25.97
2022-10-19T21:19:35.210Z,25.98
2022-10-19T21:21:35.141Z,25.93
2022-10-19T21:23:35.123Z,26.04
2022-10-19T21:25:35.206Z,25.99
2022-10-19T21:27:35.376Z,26.04
2022-10-19T21:29:35.138Z,26.14
2022-10-19T21:31:35.219Z,26.08
2022-10-19T21:33:35.097Z,26.08
2022-10-19T21:35:35.066Z,25.99
2022-10-19T21:37:35.619Z,26.10
2022-10-19T21:39:35.194Z,25.79
2022-10-19T21:41:35.060Z,26.06
2022-10-19T21:43:35.116Z,26.07
2022-10-19T21:45:35.055Z,26.07
2022-10-19T21:47:35.444Z,26.07
2022-10-19T21:49:35.121Z,26.08
2022-10-19T21:51:35.232Z,26.06
2022-10-19T21:53:35.278Z,26.04
2022-10-19T21:55:35.197Z,26.08
2022-10-19T21:57:35.491Z,26.07
2022-10-19T21:59:35.106Z,26.08
2022-10-19T22:01:38.705Z,26.16
2022-10-19T22:03:35.240Z,26.07
2022-10-19T22:05:35.229Z,26.00
2022-10-19T22:07:35.356Z,26.07
2022-10-19T22:09:35.225Z,26.07
2022-10-19T22:11:35.259Z,26.05
2022-10-19T22:13:35.140Z,26.05
2022-10-19T22:15:35.149Z,26.07
2022-10-19T22:17:35.163Z,26.08
2022-10-19T22:19:35.277Z,26.07
2022-10-19T22:21:35.327Z,26.04
2022-10-19T22:23:35.105Z,26.03
2022-10-19T22:25:35.197Z,26.12
2022-10-19T22:27:35.270Z,26.08
2022-10-19T22:29:35.208Z,26.08
2022-10-19T22:31:35.274Z,26.07
2022-10-19T22:33:35.228Z,26.10
2022-10-19T22:35:35.252Z,26.08
2022-10-19T22:37:35.242Z,26.06
2022-10-19T22:39:35.320Z,26.07
2022-10-19T22:41:35.282Z,26.04
2022-10-19T22:43:35.239Z,26.08
2022-10-19T22:45:35.120Z,26.00
2022-10-19T22:47:35.308Z,25.96
2022-10-19T22:49:35.296Z,26.08
2022-10-19T22:51:35.247Z,26.02
2022-10-19T22:53:35.204Z,26.10
2022-10-19T22:55:35.240Z,25.98
2022-10-19T22:57:35.299Z,25.99
2022-10-19T22:59:35.307Z,26.08
2022-10-19T23:01:35.337Z,26.06
2022-10-19T23:03:35.317Z,26.08
2022-10-19T23:05:35.293Z,26.10
2022-10-19T23:07:35.384Z,25.99
2022-10-19T23:09:35.220Z,26.04
2022-10-19T23:11:35.215Z,26.01
2022-10-19T23:13:35.363Z,26.08
2022-10-19T23:15:35.291Z,26.04
2022-10-19T23:17:35.577Z,26.03
2022-10-19T23:19:35.330Z,25.91
2022-10-19T23:21:35.192Z,25.99
2022-10-19T23:23:35.243Z,25.99
2022-10-19T23:25:35.376Z,26.06
2022-10-19T23:27:35.681Z,26.11
2022-10-19T23:29:35.278Z,26.14
2022-10-19T23:31:35.344Z,26.10
2022-10-19T23:33:35.295Z,26.07
2022-10-19T23:35:35.354Z,26.14
2022-10-19T23:37:35.632Z,26.04
2022-10-19T23:39:35.233Z,26.05
2022-10-19T23:41:35.364Z,25.99
2022-10-19T23:45:35.358Z,26.08
2022-10-19T23:47:35.453Z,26.15
2022-10-19T23:49:35.415Z,26.08
2022-10-19T23:51:35.353Z,26.09
2022-10-19T23:53:38.427Z,26.08
2022-10-19T23:55:35.361Z,26.08
2022-10-19T23:57:35.613Z,26.04
2022-10-19T23:59:35.250Z,26.08
